Time;durP1;ratioP1;P1;durP2;ratioP2;P2;SDS_P1;SDS_P2;PMS_P1;PMS_P2;Temp;Humidity;BMP_temperature;BMP_pressure;BME280_temperature;BME280_humidity;BME280_pressure;Samples;Min_cycle;Max_cycle;Signal;HPM_P1;HPM_P2
2023/06/20 00:00:32;;;;;;;6.47;4.30;;;;;;;;;;5089968;28;20048;-60
2023/06/20 00:02:59;;;;;;;6.72;4.88;;;;;;;;;;5091788;28;20048;-61
2023/06/20 00:05:26;;;;;;;7.90;4.78;;;;;;;;;;5087781;28;20070;-61
2023/06/20 00:07:54;;;;;;;7.55;4.80;;;;;;;;;;5081447;28;20078;-60
2023/06/20 00:10:21;;;;;;;6.55;4.80;;;;;;;;;;5083149;28;20040;-61
2023/06/20 00:12:49;;;;;;;7.22;4.70;;;;;;;;;;5084383;28;20052;-61
2023/06/20 00:15:16;;;;;;;6.10;4.82;;;;;;;;;;5084143;28;20374;-61
2023/06/20 00:17:42;;;;;;;9.50;5.07;;;;;;;;;;5090771;28;20056;-61
2023/06/20 00:20:09;;;;;;;6.55;5.28;;;;;;;;;;5089812;28;20047;-61
2023/06/20 00:22:36;;;;;;;6.38;5.07;;;;;;;;;;5085848;28;20051;-61
2023/06/20 00:25:03;;;;;;;7.72;5.22;;;;;;;;;;5080083;28;20396;-60
2023/06/20 00:27:30;;;;;;;7.18;4.78;;;;;;;;;;5091412;28;20052;-61
2023/06/20 00:29:58;;;;;;;7.00;5.30;;;;;;;;;;5089485;28;20055;-60
2023/06/20 00:32:25;;;;;;;6.45;4.88;;;;;;;;;;5085113;28;20052;-61
2023/06/20 00:34:52;;;;;;;6.70;5.05;;;;;;;;;;5089799;28;20048;-61
2023/06/20 00:37:19;;;;;;;6.00;4.75;;;;;;;;;;5090689;28;20420;-61
2023/06/20 00:39:46;;;;;;;5.88;5.28;;;;;;;;;;5089653;28;20422;-61
2023/06/20 00:42:19;;;;;;;6.72;5.22;;;;;;;;;;5095993;28;20048;-61
2023/06/20 00:44:46;;;;;;;6.93;4.90;;;;;;;;;;5102534;28;20056;-63
2023/06/20 00:47:15;;;;;;;6.00;4.50;;;;;;;;;;5103502;28;20048;-61
2023/06/20 00:49:42;;;;;;;;;;;;;;;;;;5108584;28;20063;-60
2023/06/20 00:52:09;;;;;;;8.40;5.15;;;;;;;;;;5105877;28;19931;-61
2023/06/20 00:54:36;;;;;;;6.55;5.10;;;;;;;;;;5103264;28;20044;-61
2023/06/20 00:57:05;;;;;;;7.00;5.15;;;;;;;;;;5112038;28;20044;-61
2023/06/20 00:59:32;;;;;;;8.40;5.10;;;;;;;;;;5102455;28;20051;-60
2023/06/20 01:01:58;;;;;;;5.22;4.70;;;;;;;;;;5100557;28;20070;-61
2023/06/20 01:04:29;;;;;;;7.22;5.25;;;;;;;;;;5104293;28;20047;-61
2023/06/20 01:07:00;;;;;;;6.30;5.15;;;;;;;;;;5110750;28;20056;-61
2023/06/20 01:09:29;;;;;;;6.10;5.28;;;;;;;;;;5109044;28;20047;-60
2023/06/20 01:12:01;;;;;;;6.43;4.68;;;;;;;;;;5110250;28;20047;-61
2023/06/20 01:14:32;;;;;;;5.93;4.97;;;;;;;;;;5101991;28;20062;-60
2023/06/20 01:17:00;;;;;;;5.55;4.75;;;;;;;;;;5106775;28;20055;-61
2023/06/20 01:19:43;;;;;;;6.22;5.10;;;;;;;;;;5093448;28;20059;-62
2023/06/20 01:22:13;;;;;;;7.53;5.03;;;;;;;;;;5098797;28;20048;-62
2023/06/20 01:24:46;;;;;;;7.03;5.18;;;;;;;;;;5102414;27;20075;-61
2023/06/20 01:27:15;;;;;;;8.80;5.60;;;;;;;;;;5103031;28;20047;-61
2023/06/20 01:29:46;;;;;;;8.40;5.90;;;;;;;;;;5111425;28;20409;-61
2023/06/20 01:32:16;;;;;;;8.57;5.40;;;;;;;;;;5109740;28;20048;-61
2023/06/20 01:34:46;;;;;;;6.82;5.07;;;;;;;;;;5106157;28;20051;-61
2023/06/20 01:37:15;;;;;;;6.32;5.18;;;;;;;;;;5114655;28;20067;-61
2023/06/20 01:39:42;;;;;;;;;;;;;;;;;;5110986;27;20060;-61
2023/06/20 01:42:10;;;;;;;6.55;5.13;;;;;;;;;;5112778;28;19931;-60
2023/06/20 01:44:39;;;;;;;5.90;4.60;;;;;;;;;;5109453;28;20059;-59
2023/06/20 01:47:06;;;;;;;6.35;5.18;;;;;;;;;;5111260;28;20147;-60
2023/06/20 01:49:34;;;;;;;7.40;4.85;;;;;;;;;;5112474;28;20058;-59
2023/06/20 01:52:03;;;;;;;8.80;5.28;;;;;;;;;;5113387;28;20377;-60
2023/06/20 01:54:30;;;;;;;6.78;4.95;;;;;;;;;;5111669;28;20357;-60
2023/06/20 01:56:57;;;;;;;7.78;5.30;;;;;;;;;;5112968;28;20503;-60
2023/06/20 01:59:26;;;;;;;9.35;6.18;;;;;;;;;;5111543;27;20059;-60
2023/06/20 02:01:59;;;;;;;5.88;5.10;;;;;;;;;;5112233;27;20055;-60
2023/06/20 02:04:26;;;;;;;8.23;5.32;;;;;;;;;;5105832;28;20051;-60
2023/06/20 02:06:56;;;;;;;8.65;6.20;;;;;;;;;;5114199;28;20047;-61
2023/06/20 02:09:27;;;;;;;7.28;5.32;;;;;;;;;;5109658;27;20043;-59
2023/06/20 02:11:54;;;;;;;7.65;5.93;;;;;;;;;;5106429;28;20519;-61
2023/06/20 02:14:21;;;;;;;7.43;5.47;;;;;;;;;;5109107;28;20396;-61
2023/06/20 02:16:51;;;;;;;9.20;6.25;;;;;;;;;;5108507;28;20495;-61
2023/06/20 02:19:17;;;;;;;6.50;5.05;;;;;;;;;;5103618;28;20048;-61
2023/06/20 02:21:45;;;;;;;7.45;5.80;;;;;;;;;;5108913;28;20048;-61
2023/06/20 02:24:13;;;;;;;6.38;4.85;;;;;;;;;;5113496;27;20420;-61
2023/06/20 02:26:45;;;;;;;6.50;5.30;;;;;;;;;;5112708;28;20059;-60
2023/06/20 02:29:16;;;;;;;7.40;5.85;;;;;;;;;;5103929;28;20047;-61
2023/06/20 02:31:46;;;;;;;6.47;5.13;;;;;;;;;;5110238;27;20048;-60
2023/06/20 02:34:19;;;;;;;7.68;5.50;;;;;;;;;;5107223;28;20048;-60
2023/06/20 02:36:46;;;;;;;7.60;5.35;;;;;;;;;;5105526;28;20052;-60
2023/06/20 02:39:13;;;;;;;7.32;4.95;;;;;;;;;;5107086;27;20051;-60
2023/06/20 02:41:41;;;;;;;8.00;5.75;;;;;;;;;;5107956;28;20059;-60
2023/06/20 02:44:08;;;;;;;7.53;4.97;;;;;;;;;;5109086;28;20055;-60
2023/06/20 02:46:37;;;;;;;6.55;5.18;;;;;;;;;;5110280;27;20058;-60
2023/06/20 02:49:09;;;;;;;6.82;5.38;;;;;;;;;;5109163;28;20047;-60
2023/06/20 02:51:40;;;;;;;6.38;5.30;;;;;;;;;;5113190;28;20063;-60
2023/06/20 02:54:15;;;;;;;8.27;6.40;;;;;;;;;;5106585;28;20404;-59
2023/06/20 02:56:44;;;;;;;9.38;5.38;;;;;;;;;;5103735;28;20066;-60
2023/06/20 02:59:11;;;;;;;7.50;6.33;;;;;;;;;;5111474;28;20066;-61
2023/06/20 03:01:39;;;;;;;7.32;6.05;;;;;;;;;;5101624;28;20507;-60
2023/06/20 03:04:07;;;;;;;7.45;5.57;;;;;;;;;;5101748;28;20063;-60
2023/06/20 03:06:37;;;;;;;6.65;5.43;;;;;;;;;;5102018;28;20048;-61
2023/06/20 03:09:05;;;;;;;7.35;5.70;;;;;;;;;;5106944;27;20055;-61
2023/06/20 03:11:32;;;;;;;9.60;5.82;;;;;;;;;;5100557;27;20044;-61
2023/06/20 03:14:00;;;;;;;8.27;5.78;;;;;;;;;;5112486;28;20503;-61
2023/06/20 03:16:26;;;;;;;10.60;5.72;;;;;;;;;;5110531;28;20052;-61
2023/06/20 03:18:53;;;;;;;6.97;5.57;;;;;;;;;;5107421;28;20047;-61
2023/06/20 03:21:21;;;;;;;6.22;5.38;;;;;;;;;;5111159;28;20047;-60
2023/06/20 03:23:48;;;;;;;6.70;5.75;;;;;;;;;;5106486;28;20045;-60
2023/06/20 03:26:16;;;;;;;8.13;6.03;;;;;;;;;;5103456;28;20448;-61
2023/06/20 03:28:43;;;;;;;7.85;6.32;;;;;;;;;;5103411;28;20059;-60
2023/06/20 03:31:09;;;;;;;9.05;7.20;;;;;;;;;;5105493;28;20052;-61
2023/06/20 03:33:36;;;;;;;7.40;6.60;;;;;;;;;;5109073;28;20052;-60
2023/06/20 03:36:03;;;;;;;10.52;6.90;;;;;;;;;;5110274;28;20051;-61
2023/06/20 03:38:30;;;;;;;9.40;6.25;;;;;;;;;;5111466;28;20048;-61
2023/06/20 03:40:58;;;;;;;6.55;5.65;;;;;;;;;;5104225;28;20051;-61
2023/06/20 03:43:26;;;;;;;10.13;6.47;;;;;;;;;;5112332;28;20062;-61
2023/06/20 03:45:53;;;;;;;8.10;7.03;;;;;;;;;;5107326;28;20158;-61
2023/06/20 03:48:21;;;;;;;8.02;6.28;;;;;;;;;;5108945;28;20054;-61
2023/06/20 03:50:48;;;;;;;7.63;6.82;;;;;;;;;;5094805;28;20126;-61
2023/06/20 03:53:15;;;;;;;7.65;5.93;;;;;;;;;;5109549;28;20487;-61
2023/06/20 03:55:42;;;;;;;5.85;5.20;;;;;;;;;;5102002;27;20052;-61
2023/06/20 03:58:08;;;;;;;6.57;5.70;;;;;;;;;;5111933;28;20054;-61
2023/06/20 04:00:38;;;;;;;5.93;5.32;;;;;;;;;;5108726;28;20048;-61
2023/06/20 04:03:05;;;;;;;6.63;5.20;;;;;;;;;;5110745;28;20070;-60
2023/06/20 04:05:32;;;;;;;6.45;5.50;;;;;;;;;;5112369;28;20074;-60
2023/06/20 04:08:00;;;;;;;8.23;5.18;;;;;;;;;;5110467;28;20054;-61
2023/06/20 04:10:28;;;;;;;6.32;5.70;;;;;;;;;;5101293;28;20059;-61
2023/06/20 04:12:54;;;;;;;7.18;5.63;;;;;;;;;;5098177;28;20771;-61
2023/06/20 04:15:21;;;;;;;7.45;6.60;;;;;;;;;;5109842;28;20048;-61
2023/06/20 04:17:49;;;;;;;7.93;5.68;;;;;;;;;;5111343;28;20051;-61
2023/06/20 04:20:19;;;;;;;6.97;6.07;;;;;;;;;;5105941;28;20048;-61
2023/06/20 04:22:46;;;;;;;7.38;6.47;;;;;;;;;;5102521;28;20059;-61
2023/06/20 04:25:14;;;;;;;7.10;5.35;;;;;;;;;;5095585;28;20060;-61
2023/06/20 04:27:41;;;;;;;8.30;6.38;;;;;;;;;;5110992;28;20051;-61
2023/06/20 04:30:08;;;;;;;8.15;6.20;;;;;;;;;;5109712;28;20048;-61
2023/06/20 04:32:36;;;;;;;6.97;5.70;;;;;;;;;;5108562;28;20043;-61
2023/06/20 04:35:05;;;;;;;8.25;7.45;;;;;;;;;;5110011;28;20051;-61
2023/06/20 04:37:32;;;;;;;6.93;5.72;;;;;;;;;;5108813;28;20515;-61
2023/06/20 04:39:59;;;;;;;5.70;5.07;;;;;;;;;;5105648;28;20063;-60
2023/06/20 04:42:25;;;;;;;6.65;4.80;;;;;;;;;;5105740;28;20063;-61
2023/06/20 04:44:53;;;;;;;6.30;5.70;;;;;;;;;;5107485;28;20507;-60
2023/06/20 04:47:20;;;;;;;6.28;5.13;;;;;;;;;;5103763;28;20039;-61
2023/06/20 04:49:47;;;;;;;5.72;4.90;;;;;;;;;;5102255;28;20052;-61
2023/06/20 04:52:15;;;;;;;7.97;5.47;;;;;;;;;;5105986;28;20050;-61
2023/06/20 04:54:44;;;;;;;5.43;4.65;;;;;;;;;;5107313;28;20051;-61
2023/06/20 04:57:11;;;;;;;6.25;5.05;;;;;;;;;;5113500;28;20052;-60
2023/06/20 04:59:41;;;;;;;8.73;7.82;;;;;;;;;;5113706;28;20044;-61
2023/06/20 05:02:08;;;;;;;9.95;8.40;;;;;;;;;;5114005;28;20050;-62
2023/06/20 05:04:36;;;;;;;10.70;7.90;;;;;;;;;;5112869;27;20683;-61
2023/06/20 05:07:03;;;;;;;8.13;7.30;;;;;;;;;;5111482;28;20059;-61
2023/06/20 05:09:31;;;;;;;10.88;7.95;;;;;;;;;;5106665;27;20684;-60
2023/06/20 05:11:58;;;;;;;9.60;8.65;;;;;;;;;;5106308;28;20047;-60
2023/06/20 05:14:24;;;;;;;10.75;8.88;;;;;;;;;;5112099;28;20059;-61
2023/06/20 05:16:51;;;;;;;7.82;7.03;;;;;;;;;;5112384;28;20155;-61
2023/06/20 05:19:18;;;;;;;10.10;7.25;;;;;;;;;;5112648;27;20051;-60
2023/06/20 05:21:45;;;;;;;7.95;7.15;;;;;;;;;;5112087;28;20055;-60
2023/06/20 05:24:12;;;;;;;9.88;7.22;;;;;;;;;;5114006;27;20052;-60
2023/06/20 05:26:40;;;;;;;10.57;7.28;;;;;;;;;;5112903;28;20067;-60
2023/06/20 05:29:07;;;;;;;8.75;6.85;;;;;;;;;;5110388;28;20919;-60
2023/06/20 05:31:34;;;;;;;10.45;6.95;;;;;;;;;;5106982;28;20058;-60
2023/06/20 05:34:00;;;;;;;8.75;7.13;;;;;;;;;;5103458;27;20480;-60
2023/06/20 05:36:27;;;;;;;7.60;6.30;;;;;;;;;;5113713;27;20158;-61
2023/06/20 05:38:56;;;;;;;8.13;6.55;;;;;;;;;;5115471;28;20594;-60
2023/06/20 05:41:23;;;;;;;7.45;6.68;;;;;;;;;;5113968;27;20075;-60
2023/06/20 05:43:51;;;;;;;7.55;6.47;;;;;;;;;;5114851;28;20050;-60
2023/06/20 05:46:18;;;;;;;7.82;6.20;;;;;;;;;;5114542;27;20465;-60
2023/06/20 05:48:45;;;;;;;6.78;6.07;;;;;;;;;;5114597;28;20055;-61
2023/06/20 05:51:13;;;;;;;8.60;5.85;;;;;;;;;;5115060;28;20055;-60
2023/06/20 05:53:41;;;;;;;7.90;7.07;;;;;;;;;;5114924;28;20048;-60
2023/06/20 05:56:08;;;;;;;6.97;6.18;;;;;;;;;;5115144;27;20178;-61
2023/06/20 05:58:36;;;;;;;6.68;5.97;;;;;;;;;;5114619;28;20052;-60
2023/06/20 06:01:04;;;;;;;7.97;6.38;;;;;;;;;;5114126;27;20051;-61
2023/06/20 06:03:33;;;;;;;7.43;6.72;;;;;;;;;;5112626;27;20048;-60
2023/06/20 06:06:00;;;;;;;8.07;6.70;;;;;;;;;;5114186;27;20494;-60
2023/06/20 06:08:27;;;;;;;9.48;6.85;;;;;;;;;;5113037;28;20048;-60
2023/06/20 06:10:54;;;;;;;7.55;6.28;;;;;;;;;;5103506;27;20052;-60
2023/06/20 06:13:21;;;;;;;9.50;8.45;;;;;;;;;;5112899;28;20075;-60
2023/06/20 06:15:48;;;;;;;8.23;7.43;;;;;;;;;;5113275;27;20059;-60
2023/06/20 06:18:16;;;;;;;8.18;7.03;;;;;;;;;;5113827;28;20055;-60
2023/06/20 06:20:44;;;;;;;7.60;6.13;;;;;;;;;;5114221;28;20440;-60
2023/06/20 06:23:11;;;;;;;8.38;6.28;;;;;;;;;;5114383;28;20058;-60
2023/06/20 06:25:38;;;;;;;7.10;6.40;;;;;;;;;;5113286;27;20047;-61
2023/06/20 06:28:04;;;;;;;9.20;6.45;;;;;;;;;;5114230;28;20488;-61
2023/06/20 06:30:32;;;;;;;7.95;6.07;;;;;;;;;;5114340;28;20043;-61
2023/06/20 06:33:01;;;;;;;7.63;6.63;;;;;;;;;;5113992;28;20070;-60
2023/06/20 06:35:30;;;;;;;8.25;6.75;;;;;;;;;;5113507;27;20048;-60
2023/06/20 06:37:56;;;;;;;;;;;;;;;;;;5114373;28;20059;-61
2023/06/20 06:40:23;;;;;;;6.28;5.55;;;;;;;;;;5116980;27;19930;-61
2023/06/20 06:42:50;;;;;;;6.50;5.28;;;;;;;;;;5112903;28;20523;-60
2023/06/20 06:45:17;;;;;;;5.40;4.15;;;;;;;;;;5113244;28;20047;-61
2023/06/20 06:47:44;;;;;;;5.95;4.38;;;;;;;;;;5114037;28;20135;-61
2023/06/20 06:50:11;;;;;;;6.63;4.35;;;;;;;;;;5113693;28;20055;-61
2023/06/20 06:52:39;;;;;;;6.28;4.13;;;;;;;;;;5113838;28;20062;-61
2023/06/20 06:55:07;;;;;;;5.28;3.92;;;;;;;;;;5113407;28;20070;-60
2023/06/20 06:57:34;;;;;;;5.40;3.72;;;;;;;;;;5113511;27;20055;-60
2023/06/20 07:00:01;;;;;;;6.88;5.10;;;;;;;;;;5113784;28;20048;-60
2023/06/20 07:02:28;;;;;;;5.43;4.32;;;;;;;;;;5112329;28;20070;-61
2023/06/20 07:04:54;;;;;;;7.35;4.10;;;;;;;;;;5113595;28;20052;-61
2023/06/20 07:07:21;;;;;;;5.07;4.32;;;;;;;;;;5111118;27;20392;-60
2023/06/20 07:09:49;;;;;;;6.10;4.32;;;;;;;;;;5112380;28;20162;-61
2023/06/20 07:12:16;;;;;;;4.57;4.18;;;;;;;;;;5113595;27;20051;-60
2023/06/20 07:14:43;;;;;;;6.55;4.70;;;;;;;;;;5111374;28;20043;-60
2023/06/20 07:17:10;;;;;;;5.20;4.55;;;;;;;;;;5112921;28;20056;-60
2023/06/20 07:19:36;;;;;;;4.93;4.32;;;;;;;;;;5113116;28;20416;-60
2023/06/20 07:22:03;;;;;;;5.07;4.43;;;;;;;;;;5102055;28;20063;-61
2023/06/20 07:24:30;;;;;;;5.40;4.25;;;;;;;;;;5092594;28;20043;-60
2023/06/20 07:26:58;;;;;;;4.70;4.28;;;;;;;;;;5103837;27;20381;-61
2023/06/20 07:29:25;;;;;;;5.78;4.15;;;;;;;;;;5113211;28;20062;-61
2023/06/20 07:31:52;;;;;;;4.25;3.85;;;;;;;;;;5112899;28;20134;-61
2023/06/20 07:34:19;;;;;;;5.28;4.28;;;;;;;;;;5112611;28;20051;-60
2023/06/20 07:36:46;;;;;;;5.40;4.57;;;;;;;;;;5112139;28;20055;-61
2023/06/20 07:39:13;;;;;;;4.65;4.20;;;;;;;;;;5112703;28;20056;-61
2023/06/20 07:41:39;;;;;;;4.72;4.22;;;;;;;;;;5111563;27;20059;-61
2023/06/20 07:44:10;;;;;;;5.28;4.20;;;;;;;;;;5110109;28;20415;-61
2023/06/20 07:46:38;;;;;;;4.70;3.70;;;;;;;;;;5112497;28;20052;-62
2023/06/20 07:49:04;;;;;;;5.03;4.50;;;;;;;;;;5114890;27;20051;-59
2023/06/20 07:51:33;;;;;;;5.35;4.20;;;;;;;;;;5119771;27;20055;-59
2023/06/20 07:54:00;;;;;;;9.18;4.55;;;;;;;;;;5112758;28;20047;-58
2023/06/20 07:56:27;;;;;;;5.18;3.95;;;;;;;;;;5112557;27;20059;-59
2023/06/20 07:58:53;;;;;;;11.50;5.05;;;;;;;;;;5112711;28;20052;-60
2023/06/20 08:01:22;;;;;;;7.00;3.78;;;;;;;;;;5111254;28;20060;-59
2023/06/20 08:03:49;;;;;;;4.40;4.00;;;;;;;;;;5112836;28;20126;-60
2023/06/20 08:06:16;;;;;;;4.15;3.72;;;;;;;;;;5112645;28;20220;-60
2023/06/20 08:08:43;;;;;;;4.35;3.92;;;;;;;;;;5112466;28;20484;-60
2023/06/20 08:11:10;;;;;;;4.13;3.67;;;;;;;;;;5110038;28;20048;-60
2023/06/20 08:13:37;;;;;;;4.30;3.50;;;;;;;;;;5111845;28;20051;-58
2023/06/20 08:16:04;;;;;;;6.55;3.90;;;;;;;;;;5113412;28;20483;-59
2023/06/20 08:18:32;;;;;;;5.05;4.25;;;;;;;;;;5112171;28;20054;-59
2023/06/20 08:20:59;;;;;;;4.72;3.75;;;;;;;;;;5111801;28;20056;-60
2023/06/20 08:23:26;;;;;;;4.22;3.83;;;;;;;;;;5112362;28;20379;-59
2023/06/20 08:25:53;;;;;;;4.10;3.60;;;;;;;;;;5109279;28;20381;-59
2023/06/20 08:28:20;;;;;;;5.32;3.90;;;;;;;;;;5091797;28;20052;-60
2023/06/20 08:30:46;;;;;;;4.20;3.80;;;;;;;;;;5097285;28;20078;-60
2023/06/20 08:33:13;;;;;;;4.68;3.97;;;;;;;;;;5115857;28;20056;-60
2023/06/20 08:35:41;;;;;;;4.13;3.50;;;;;;;;;;5116276;28;20052;-60
2023/06/20 08:38:09;;;;;;;4.22;3.83;;;;;;;;;;5115885;27;20047;-61
2023/06/20 08:40:36;;;;;;;3.97;3.37;;;;;;;;;;5116170;27;20051;-60
2023/06/20 08:43:03;;;;;;;4.70;3.13;;;;;;;;;;5116571;27;20052;-61
2023/06/20 08:45:30;;;;;;;5.25;3.85;;;;;;;;;;5116241;28;20047;-61
2023/06/20 08:47:58;;;;;;;5.28;3.70;;;;;;;;;;5115878;28;20048;-61
2023/06/20 08:50:25;;;;;;;4.07;3.30;;;;;;;;;;5115458;27;20055;-61
2023/06/20 08:52:54;;;;;;;5.30;3.67;;;;;;;;;;5116280;28;20051;-61
2023/06/20 08:55:22;;;;;;;3.85;3.22;;;;;;;;;;5110499;27;20069;-61
2023/06/20 08:57:51;;;;;;;7.50;3.53;;;;;;;;;;5116373;28;20056;-61
2023/06/20 09:00:19;;;;;;;4.22;3.33;;;;;;;;;;5115787;28;20396;-60
2023/06/20 09:02:46;;;;;;;;;;;;;;;;;;5116744;28;20056;-62
2023/06/20 09:05:12;;;;;;;3.63;3.33;;;;;;;;;;5115313;27;19919;-62
2023/06/20 09:07:41;;;;;;;3.88;3.38;;;;;;;;;;5099120;28;20062;-61
2023/06/20 09:10:10;;;;;;;3.45;3.15;;;;;;;;;;5115666;28;20048;-60
2023/06/20 09:12:46;;;;;;;4.43;3.30;;;;;;;;;;5115292;27;20052;-62
2023/06/20 09:15:14;;;;;;;5.20;3.45;;;;;;;;;;5114834;27;20043;-61
2023/06/20 09:17:41;;;;;;;4.38;3.25;;;;;;;;;;5094921;28;20056;-61
2023/06/20 09:20:09;;;;;;;3.88;3.47;;;;;;;;;;5095060;28;20499;-61
2023/06/20 09:22:38;;;;;;;4.22;3.83;;;;;;;;;;5095417;28;20393;-60
2023/06/20 09:25:05;;;;;;;5.85;3.53;;;;;;;;;;5095133;28;20063;-61
2023/06/20 09:27:35;;;;;;;4.18;3.35;;;;;;;;;;5114210;27;20412;-60
2023/06/20 09:30:03;;;;;;;3.40;3.10;;;;;;;;;;5115104;28;20048;-61
2023/06/20 09:32:33;;;;;;;3.58;2.92;;;;;;;;;;5115300;28;20051;-60
2023/06/20 09:35:02;;;;;;;2.88;2.67;;;;;;;;;;5115168;28;20384;-61
2023/06/20 09:37:38;;;;;;;3.33;2.22;;;;;;;;;;5114626;27;20058;-61
2023/06/20 09:40:09;;;;;;;4.50;2.47;;;;;;;;;;5117512;28;20058;-61
2023/06/20 09:42:38;;;;;;;2.95;2.45;;;;;;;;;;5113044;27;20079;-60
2023/06/20 09:45:05;;;;;;;2.70;2.35;;;;;;;;;;5115317;28;20052;-60
2023/06/20 09:47:32;;;;;;;;;;;;;;;;;;5115182;27;20051;-60
2023/06/20 09:50:00;;;;;;;3.63;3.00;;;;;;;;;;5115004;28;19927;-60
2023/06/20 09:52:31;;;;;;;2.88;2.65;;;;;;;;;;5115509;28;20051;-59
2023/06/20 09:55:00;;;;;;;4.15;3.03;;;;;;;;;;5114661;28;20047;-61
2023/06/20 09:57:30;;;;;;;4.35;2.90;;;;;;;;;;5114769;27;20055;-60
2023/06/20 09:59:58;;;;;;;3.13;2.58;;;;;;;;;;5115290;28;20066;-60
2023/06/20 10:02:26;;;;;;;5.10;3.00;;;;;;;;;;5127373;27;20051;-61
2023/06/20 10:04:56;;;;;;;2.88;2.67;;;;;;;;;;5135702;27;20392;-60
2023/06/20 10:07:22;;;;;;;3.78;2.58;;;;;;;;;;5117574;27;20052;-60
2023/06/20 10:09:54;;;;;;;2.95;2.67;;;;;;;;;;5114840;28;20051;-60
2023/06/20 10:12:23;;;;;;;3.40;2.75;;;;;;;;;;5112895;27;20051;-60
2023/06/20 10:14:50;;;;;;;4.10;2.75;;;;;;;;;;5114616;28;20052;-60
2023/06/20 10:17:29;;;;;;;3.03;2.70;;;;;;;;;;5114753;28;20062;-62
2023/06/20 10:19:57;;;;;;;3.70;2.90;;;;;;;;;;5112061;27;20055;-61
2023/06/20 10:22:34;;;;;;;3.33;2.95;;;;;;;;;;5114620;28;20154;-60
2023/06/20 10:25:11;;;;;;;2.70;2.50;;;;;;;;;;5114502;28;20047;-61
2023/06/20 10:27:38;;;;;;;3.78;2.90;;;;;;;;;;5113464;27;20056;-60
2023/06/20 10:30:08;;;;;;;3.17;2.65;;;;;;;;;;5114384;28;20058;-60
2023/06/20 10:32:38;;;;;;;4.50;3.15;;;;;;;;;;5116723;28;20052;-61
2023/06/20 10:35:07;;;;;;;6.03;2.80;;;;;;;;;;5111402;28;20058;-60
2023/06/20 10:37:38;;;;;;;2.80;2.40;;;;;;;;;;5112852;27;20412;-61
2023/06/20 10:40:06;;;;;;;2.90;2.58;;;;;;;;;;5114206;28;20051;-60
2023/06/20 10:42:37;;;;;;;2.95;2.28;;;;;;;;;;5113773;27;20052;-60
2023/06/20 10:45:16;;;;;;;4.53;2.67;;;;;;;;;;5114308;28;20043;-60
2023/06/20 10:47:46;;;;;;;3.63;2.55;;;;;;;;;;5114467;28;20051;-60
2023/06/20 10:50:14;;;;;;;3.10;2.80;;;;;;;;;;5113659;28;20051;-60
2023/06/20 10:52:41;;;;;;;4.47;2.75;;;;;;;;;;5113598;28;20052;-61
2023/06/20 10:55:08;;;;;;;2.75;2.40;;;;;;;;;;5113680;28;20052;-61
2023/06/20 10:57:35;;;;;;;3.08;2.70;;;;;;;;;;5113906;27;20050;-61
2023/06/20 11:00:13;;;;;;;3.10;2.80;;;;;;;;;;5115264;28;20108;-61
2023/06/20 11:02:41;;;;;;;2.88;2.60;;;;;;;;;;5113020;28;20047;-60
2023/06/20 11:05:10;;;;;;;3.20;2.83;;;;;;;;;;5113836;28;20048;-62
2023/06/20 11:07:58;;;;;;;2.90;2.70;;;;;;;;;;5116094;27;20408;-61
2023/06/20 11:10:28;;;;;;;2.85;2.60;;;;;;;;;;5134403;27;20055;-61
2023/06/20 11:12:55;;;;;;;2.92;2.40;;;;;;;;;;5121422;27;20055;-60
2023/06/20 11:15:23;;;;;;;2.60;2.40;;;;;;;;;;5113911;28;20397;-60
2023/06/20 11:17:50;;;;;;;2.88;2.33;;;;;;;;;;5113865;28;20988;-60
2023/06/20 11:20:18;;;;;;;3.63;2.63;;;;;;;;;;5113790;28;20511;-60
2023/06/20 11:22:46;;;;;;;2.80;2.60;;;;;;;;;;5113000;27;20407;-60
2023/06/20 11:25:20;;;;;;;4.70;3.00;;;;;;;;;;5113339;28;20047;-61
2023/06/20 11:27:47;;;;;;;3.22;2.80;;;;;;;;;;5112668;27;20428;-62
2023/06/20 11:30:15;;;;;;;3.13;2.83;;;;;;;;;;5110260;27;20070;-62
2023/06/20 11:32:41;;;;;;;4.38;2.75;;;;;;;;;;5113269;28;20055;-62
2023/06/20 11:35:08;;;;;;;3.67;2.70;;;;;;;;;;5113191;28;20448;-63
2023/06/20 11:37:40;;;;;;;3.20;2.50;;;;;;;;;;5113506;28;20051;-61
2023/06/20 11:40:12;;;;;;;2.90;2.60;;;;;;;;;;5111008;27;20051;-61
2023/06/20 11:42:39;;;;;;;2.53;2.33;;;;;;;;;;5112247;27;20060;-61
2023/06/20 11:45:09;;;;;;;2.77;2.53;;;;;;;;;;5112980;28;20047;-60
2023/06/20 11:47:39;;;;;;;2.85;2.60;;;;;;;;;;5112990;28;20052;-60
2023/06/20 11:50:06;;;;;;;2.80;2.50;;;;;;;;;;5111637;28;20055;-60
2023/06/20 11:52:33;;;;;;;2.40;2.20;;;;;;;;;;5113096;28;20122;-61
2023/06/20 11:55:03;;;;;;;2.73;2.40;;;;;;;;;;5112464;28;20048;-61
2023/06/20 11:57:30;;;;;;;4.65;2.47;;;;;;;;;;5114944;27;20055;-61
2023/06/20 11:59:59;;;;;;;2.63;2.20;;;;;;;;;;5112411;28;20047;-61
2023/06/20 12:02:26;;;;;;;2.65;2.35;;;;;;;;;;5112453;28;20062;-61
2023/06/20 12:04:57;;;;;;;2.53;2.28;;;;;;;;;;5113045;28;20056;-61
2023/06/20 12:07:25;;;;;;;2.25;2.00;;;;;;;;;;5112144;28;20062;-61
2023/06/20 12:09:52;;;;;;;3.08;2.58;;;;;;;;;;5112509;28;20441;-61
2023/06/20 12:12:24;;;;;;;2.60;2.40;;;;;;;;;;5116474;28;20048;-60
2023/06/20 12:14:52;;;;;;;2.45;2.25;;;;;;;;;;5112717;28;20051;-61
2023/06/20 12:17:19;;;;;;;2.42;2.20;;;;;;;;;;5115088;28;20062;-61
2023/06/20 12:19:53;;;;;;;3.30;2.50;;;;;;;;;;5112344;28;20126;-61
2023/06/20 12:22:20;;;;;;;4.82;2.90;;;;;;;;;;5111933;28;20060;-61
2023/06/20 12:24:46;;;;;;;4.55;2.50;;;;;;;;;;5112864;28;20365;-61
2023/06/20 12:27:13;;;;;;;3.30;2.58;;;;;;;;;;5111576;28;20051;-61
2023/06/20 12:29:41;;;;;;;2.40;2.20;;;;;;;;;;5113046;28;20062;-62
2023/06/20 12:32:09;;;;;;;3.22;2.58;;;;;;;;;;5111896;28;20051;-62
2023/06/20 12:34:36;;;;;;;;;;;;;;;;;;5113158;28;20052;-62
2023/06/20 12:37:02;;;;;;;2.90;2.60;;;;;;;;;;5112741;28;19927;-62
2023/06/20 12:39:29;;;;;;;3.15;2.50;;;;;;;;;;5111235;28;20060;-61
2023/06/20 12:41:56;;;;;;;2.60;2.40;;;;;;;;;;5111578;28;20059;-61
2023/06/20 12:44:23;;;;;;;2.50;2.30;;;;;;;;;;5112446;28;20997;-61
2023/06/20 12:46:51;;;;;;;2.03;1.83;;;;;;;;;;5112186;28;20052;-61
2023/06/20 12:49:18;;;;;;;2.55;2.35;;;;;;;;;;5111497;28;20052;-61
2023/06/20 12:51:45;;;;;;;3.08;2.47;;;;;;;;;;5112359;28;20055;-61
2023/06/20 12:54:12;;;;;;;3.70;2.47;;;;;;;;;;5112563;28;20048;-61
2023/06/20 12:56:40;;;;;;;2.58;2.30;;;;;;;;;;5111622;28;20047;-61
2023/06/20 12:59:07;;;;;;;2.58;2.35;;;;;;;;;;5111036;28;20412;-61
2023/06/20 13:01:34;;;;;;;2.85;2.22;;;;;;;;;;5112058;28;20054;-62
2023/06/20 13:04:03;;;;;;;3.53;1.90;;;;;;;;;;5112086;28;20051;-61
2023/06/20 13:06:30;;;;;;;2.85;2.20;;;;;;;;;;5111641;28;20051;-61
2023/06/20 13:08:57;;;;;;;2.93;2.23;;;;;;;;;;5112421;28;20074;-61
2023/06/20 13:11:24;;;;;;;2.50;2.03;;;;;;;;;;5112339;28;20059;-60
2023/06/20 13:13:50;;;;;;;3.72;2.50;;;;;;;;;;5110017;28;20480;-60
2023/06/20 13:16:17;;;;;;;2.73;2.07;;;;;;;;;;5112165;28;20468;-61
2023/06/20 13:18:45;;;;;;;2.30;2.10;;;;;;;;;;5114943;27;20055;-62
2023/06/20 13:21:13;;;;;;;3.58;2.40;;;;;;;;;;5116175;28;20067;-62
2023/06/20 13:23:41;;;;;;;2.80;2.13;;;;;;;;;;5115729;28;20063;-62
2023/06/20 13:26:09;;;;;;;3.15;2.30;;;;;;;;;;5115893;28;20044;-62
2023/06/20 13:28:35;;;;;;;;;;;;;;;;;;5113561;27;20048;-62
2023/06/20 13:31:02;;;;;;;2.50;2.30;;;;;;;;;;5115871;28;20402;-61
2023/06/20 13:33:29;;;;;;;2.88;2.10;;;;;;;;;;5113876;27;20404;-61
2023/06/20 13:35:55;;;;;;;2.33;2.13;;;;;;;;;;5114898;28;20392;-61
2023/06/20 13:38:27;;;;;;;2.60;2.10;;;;;;;;;;5115507;28;20051;-62
2023/06/20 13:40:54;;;;;;;2.53;2.33;;;;;;;;;;5115407;28;20051;-63
2023/06/20 13:43:20;;;;;;;2.28;1.80;;;;;;;;;;5113551;27;20074;-62
2023/06/20 13:45:47;;;;;;;2.90;2.33;;;;;;;;;;5115586;28;20043;-62
2023/06/20 13:48:14;;;;;;;2.90;2.35;;;;;;;;;;5113913;27;20048;-62
2023/06/20 13:50:41;;;;;;;2.25;2.05;;;;;;;;;;5115429;28;20400;-62
2023/06/20 13:53:08;;;;;;;3.10;2.40;;;;;;;;;;5114883;28;20063;-62
2023/06/20 13:55:36;;;;;;;3.10;2.30;;;;;;;;;;5115020;28;20054;-62
2023/06/20 13:58:03;;;;;;;2.65;2.25;;;;;;;;;;5113865;27;20496;-62
2023/06/20 14:00:31;;;;;;;2.85;2.17;;;;;;;;;;5115433;28;20055;-62
2023/06/20 14:02:58;;;;;;;3.47;2.08;;;;;;;;;;5115379;28;20051;-62
2023/06/20 14:05:24;;;;;;;2.78;2.20;;;;;;;;;;5114830;28;20048;-61
2023/06/20 14:07:52;;;;;;;2.40;2.20;;;;;;;;;;5115413;27;20043;-60
2023/06/20 14:10:18;;;;;;;2.60;2.17;;;;;;;;;;5114574;28;20058;-62
2023/06/20 14:12:48;;;;;;;3.03;2.53;;;;;;;;;;5113185;28;20047;-62
2023/06/20 14:15:14;;;;;;;3.45;2.50;;;;;;;;;;5114526;28;20063;-62
2023/06/20 14:17:41;;;;;;;2.95;2.67;;;;;;;;;;5113675;28;20043;-61
2023/06/20 14:20:09;;;;;;;2.40;2.20;;;;;;;;;;5114323;28;20052;-62
2023/06/20 14:22:36;;;;;;;2.77;2.43;;;;;;;;;;5114451;28;20492;-61
2023/06/20 14:25:03;;;;;;;2.53;2.33;;;;;;;;;;5114187;28;20495;-61
2023/06/20 14:27:29;;;;;;;2.38;2.13;;;;;;;;;;5110987;28;20062;-61
2023/06/20 14:29:59;;;;;;;3.00;2.35;;;;;;;;;;5112988;27;20051;-61
2023/06/20 14:32:26;;;;;;;2.70;2.50;;;;;;;;;;5113982;28;20070;-60
2023/06/20 14:34:53;;;;;;;3.28;2.38;;;;;;;;;;5113637;27;20054;-61
2023/06/20 14:37:20;;;;;;;3.25;2.70;;;;;;;;;;5114201;28;20114;-60
2023/06/20 14:39:48;;;;;;;3.75;2.63;;;;;;;;;;5113485;27;20055;-61
2023/06/20 14:42:14;;;;;;;2.88;2.60;;;;;;;;;;5113363;27;20052;-61
2023/06/20 14:44:41;;;;;;;4.25;3.10;;;;;;;;;;5112985;27;20078;-61
2023/06/20 14:47:09;;;;;;;3.05;2.75;;;;;;;;;;5112606;28;20040;-60
2023/06/20 14:49:36;;;;;;;3.80;2.90;;;;;;;;;;5113540;28;20055;-60